sensor_id;sensor_type;location;lat;lon;timestamp;temperature;humidity
29403;DHT22;16382;59.942;30.472;2022-07-21T00:00:14;18.40;99.90
29403;DHT22;16382;59.942;30.472;2022-07-21T00:02:44;18.40;99.90
29403;DHT22;16382;59.942;30.472;2022-07-21T00:05:14;18.40;99.90
29403;DHT22;16382;59.942;30.472;2022-07-21T00:07:42;18.40;99.90
29403;DHT22;16382;59.942;30.472;2022-07-21T00:10:10;18.40;99.90
29403;DHT22;16382;59.942;30.472;2022-07-21T00:12:38;18.30;99.90
29403;DHT22;16382;59.942;30.472;2022-07-21T00:15:06;18.30;99.90
29403;DHT22;16382;59.942;30.472;2022-07-21T00:17:34;18.30;99.90
29403;DHT22;16382;59.942;30.472;2022-07-21T00:20:05;18.30;99.90
29403;DHT22;16382;59.942;30.472;2022-07-21T00:22:33;18.30;99.90
29403;DHT22;16382;59.942;30.472;2022-07-21T00:25:01;18.30;99.90
29403;DHT22;16382;59.942;30.472;2022-07-21T00:27:29;18.30;99.90
29403;DHT22;16382;59.942;30.472;2022-07-21T00:29:56;18.30;99.90
29403;DHT22;16382;59.942;30.472;2022-07-21T00:32:25;18.30;99.90
29403;DHT22;16382;59.942;30.472;2022-07-21T00:34:53;18.30;99.90
29403;DHT22;16382;59.942;30.472;2022-07-21T00:37:21;18.30;99.90
29403;DHT22;16382;59.942;30.472;2022-07-21T00:39:50;18.30;99.90
29403;DHT22;16382;59.942;30.472;2022-07-21T00:42:22;18.20;99.90
29403;DHT22;16382;59.942;30.472;2022-07-21T00:44:51;18.20;99.90
29403;DHT22;16382;59.942;30.472;2022-07-21T00:47:19;18.20;99.90
29403;DHT22;16382;59.942;30.472;2022-07-21T00:49:47;18.20;99.90
29403;DHT22;16382;59.942;30.472;2022-07-21T00:52:14;18.20;99.90
29403;DHT22;16382;59.942;30.472;2022-07-21T00:54:43;18.30;99.90
29403;DHT22;16382;59.942;30.472;2022-07-21T00:57:12;18.20;99.90
29403;DHT22;16382;59.942;30.472;2022-07-21T00:59:40;18.20;99.90
29403;DHT22;16382;59.942;30.472;2022-07-21T01:02:08;18.20;99.90
29403;DHT22;16382;59.942;30.472;2022-07-21T01:04:36;18.20;99.90
29403;DHT22;16382;59.942;30.472;2022-07-21T01:07:05;18.20;99.90
29403;DHT22;16382;59.942;30.472;2022-07-21T01:09:33;18.20;99.90
29403;DHT22;16382;59.942;30.472;2022-07-21T01:12:03;18.10;99.90
29403;DHT22;16382;59.942;30.472;2022-07-21T01:14:31;18.10;99.90
29403;DHT22;16382;59.942;30.472;2022-07-21T01:17:01;18.10;99.90
29403;DHT22;16382;59.942;30.472;2022-07-21T01:19:29;18.10;99.90
29403;DHT22;16382;59.942;30.472;2022-07-21T01:21:58;18.10;99.90
29403;DHT22;16382;59.942;30.472;2022-07-21T01:24:25;18.10;99.90
29403;DHT22;16382;59.942;30.472;2022-07-21T01:26:53;18.10;99.90
29403;DHT22;16382;59.942;30.472;2022-07-21T01:29:21;18.00;99.90
29403;DHT22;16382;59.942;30.472;2022-07-21T01:31:49;18.00;99.90
29403;DHT22;16382;59.942;30.472;2022-07-21T01:34:17;18.00;99.90
29403;DHT22;16382;59.942;30.472;2022-07-21T01:36:45;18.00;99.90
29403;DHT22;16382;59.942;30.472;2022-07-21T01:39:14;18.00;99.90
29403;DHT22;16382;59.942;30.472;2022-07-21T01:42:00;18.00;99.90
29403;DHT22;16382;59.942;30.472;2022-07-21T01:44:27;18.00;99.90
29403;DHT22;16382;59.942;30.472;2022-07-21T01:46:55;18.00;99.90
29403;DHT22;16382;59.942;30.472;2022-07-21T01:49:22;18.00;99.90
29403;DHT22;16382;59.942;30.472;2022-07-21T01:51:51;18.00;99.90
29403;DHT22;16382;59.942;30.472;2022-07-21T01:54:20;18.00;99.90
29403;DHT22;16382;59.942;30.472;2022-07-21T01:56:47;18.00;99.90
29403;DHT22;16382;59.942;30.472;2022-07-21T01:59:14;18.00;99.90
29403;DHT22;16382;59.942;30.472;2022-07-21T02:01:42;18.00;99.90
29403;DHT22;16382;59.942;30.472;2022-07-21T02:04:09;18.00;99.90
29403;DHT22;16382;59.942;30.472;2022-07-21T02:06:37;18.00;99.90
29403;DHT22;16382;59.942;30.472;2022-07-21T02:09:05;18.00;99.90
29403;DHT22;16382;59.942;30.472;2022-07-21T02:11:36;18.00;99.90
29403;DHT22;16382;59.942;30.472;2022-07-21T02:14:03;18.00;99.90
29403;DHT22;16382;59.942;30.472;2022-07-21T02:16:31;18.00;99.90
29403;DHT22;16382;59.942;30.472;2022-07-21T02:18:59;18.00;99.90
29403;DHT22;16382;59.942;30.472;2022-07-21T02:21:27;18.00;99.90
29403;DHT22;16382;59.942;30.472;2022-07-21T02:23:55;18.00;99.90
29403;DHT22;16382;59.942;30.472;2022-07-21T02:26:22;18.00;99.90
29403;DHT22;16382;59.942;30.472;2022-07-21T02:28:51;18.00;99.90
29403;DHT22;16382;59.942;30.472;2022-07-21T02:31:19;18.00;99.90
29403;DHT22;16382;59.942;30.472;2022-07-21T02:33:46;18.00;99.90
29403;DHT22;16382;59.942;30.472;2022-07-21T02:36:15;18.00;99.90
29403;DHT22;16382;59.942;30.472;2022-07-21T02:38:43;18.10;99.90
29403;DHT22;16382;59.942;30.472;2022-07-21T02:41:10;18.10;99.90
29403;DHT22;16382;59.942;30.472;2022-07-21T02:43:38;18.10;99.90
29403;DHT22;16382;59.942;30.472;2022-07-21T02:46:07;18.10;99.90
29403;DHT22;16382;59.942;30.472;2022-07-21T02:48:34;18.10;99.90
29403;DHT22;16382;59.942;30.472;2022-07-21T02:51:02;18.10;99.90
29403;DHT22;16382;59.942;30.472;2022-07-21T02:53:29;18.10;99.90
29403;DHT22;16382;59.942;30.472;2022-07-21T02:55:57;18.10;99.90
29403;DHT22;16382;59.942;30.472;2022-07-21T02:58:26;18.20;99.90
29403;DHT22;16382;59.942;30.472;2022-07-21T03:00:55;18.20;99.90
29403;DHT22;16382;59.942;30.472;2022-07-21T03:03:26;18.20;99.90
29403;DHT22;16382;59.942;30.472;2022-07-21T03:05:54;18.20;99.90
29403;DHT22;16382;59.942;30.472;2022-07-21T03:08:23;18.30;99.90
29403;DHT22;16382;59.942;30.472;2022-07-21T03:10:50;18.30;99.90
29403;DHT22;16382;59.942;30.472;2022-07-21T03:13:18;18.30;99.90
29403;DHT22;16382;59.942;30.472;2022-07-21T03:15:46;18.30;99.90
29403;DHT22;16382;59.942;30.472;2022-07-21T03:18:14;18.30;99.90
29403;DHT22;16382;59.942;30.472;2022-07-21T03:20:43;18.40;99.90
29403;DHT22;16382;59.942;30.472;2022-07-21T03:23:11;18.40;99.90
29403;DHT22;16382;59.942;30.472;2022-07-21T03:25:39;18.40;99.90
29403;DHT22;16382;59.942;30.472;2022-07-21T03:28:07;18.50;99.90
29403;DHT22;16382;59.942;30.472;2022-07-21T03:30:35;18.50;99.90
29403;DHT22;16382;59.942;30.472;2022-07-21T03:33:03;18.50;99.90
29403;DHT22;16382;59.942;30.472;2022-07-21T03:35:31;18.50;99.90
29403;DHT22;16382;59.942;30.472;2022-07-21T03:38:00;18.60;99.90
29403;DHT22;16382;59.942;30.472;2022-07-21T03:40:30;18.60;99.90
29403;DHT22;16382;59.942;30.472;2022-07-21T03:43:00;18.60;99.90
29403;DHT22;16382;59.942;30.472;2022-07-21T03:45:29;18.60;99.90
29403;DHT22;16382;59.942;30.472;2022-07-21T03:47:57;18.60;99.90
29403;DHT22;16382;59.942;30.472;2022-07-21T03:50:25;18.70;99.90
29403;DHT22;16382;59.942;30.472;2022-07-21T03:52:53;18.70;99.90
29403;DHT22;16382;59.942;30.472;2022-07-21T03:55:22;18.80;99.90
29403;DHT22;16382;59.942;30.472;2022-07-21T03:57:52;18.80;99.90
29403;DHT22;16382;59.942;30.472;2022-07-21T04:00:23;18.80;99.90
29403;DHT22;16382;59.942;30.472;2022-07-21T04:02:51;18.90;99.90
29403;DHT22;16382;59.942;30.472;2022-07-21T04:05:19;18.90;99.90
29403;DHT22;16382;59.942;30.472;2022-07-21T04:07:48;19.00;99.90
29403;DHT22;16382;59.942;30.472;2022-07-21T04:10:17;19.00;99.90
29403;DHT22;16382;59.942;30.472;2022-07-21T04:12:47;19.10;99.90
29403;DHT22;16382;59.942;30.472;2022-07-21T04:15:14;19.10;99.90
29403;DHT22;16382;59.942;30.472;2022-07-21T04:17:42;19.20;99.90
29403;DHT22;16382;59.942;30.472;2022-07-21T04:20:11;19.30;99.90
29403;DHT22;16382;59.942;30.472;2022-07-21T04:22:40;19.30;99.90
29403;DHT22;16382;59.942;30.472;2022-07-21T04:25:08;19.40;99.90
29403;DHT22;16382;59.942;30.472;2022-07-21T04:27:37;19.40;99.90
29403;DHT22;16382;59.942;30.472;2022-07-21T04:30:09;19.50;99.90
29403;DHT22;16382;59.942;30.472;2022-07-21T04:32:37;19.60;99.90
29403;DHT22;16382;59.942;30.472;2022-07-21T04:35:05;19.60;99.90
29403;DHT22;16382;59.942;30.472;2022-07-21T04:37:33;19.70;99.90
29403;DHT22;16382;59.942;30.472;2022-07-21T04:40:00;19.70;99.90
29403;DHT22;16382;59.942;30.472;2022-07-21T04:42:30;19.90;99.90
29403;DHT22;16382;59.942;30.472;2022-07-21T04:44:57;20.00;99.90
29403;DHT22;16382;59.942;30.472;2022-07-21T04:47:26;20.00;99.90
29403;DHT22;16382;59.942;30.472;2022-07-21T04:49:54;20.10;99.90
29403;DHT22;16382;59.942;30.472;2022-07-21T04:52:21;20.20;99.90
29403;DHT22;16382;59.942;30.472;2022-07-21T04:54:49;20.20;99.90
29403;DHT22;16382;59.942;30.472;2022-07-21T04:57:16;20.30;99.90
29403;DHT22;16382;59.942;30.472;2022-07-21T04:59:44;20.30;99.90
29403;DHT22;16382;59.942;30.472;2022-07-21T05:02:12;20.40;99.90
29403;DHT22;16382;59.942;30.472;2022-07-21T05:04:41;20.50;99.90
29403;DHT22;16382;59.942;30.472;2022-07-21T05:07:08;20.50;99.90
29403;DHT22;16382;59.942;30.472;2022-07-21T05:09:40;20.70;99.90
29403;DHT22;16382;59.942;30.472;2022-07-21T05:12:07;20.70;99.90
29403;DHT22;16382;59.942;30.472;2022-07-21T05:14:35;20.80;99.90
29403;DHT22;16382;59.942;30.472;2022-07-21T05:17:02;20.90;99.90
29403;DHT22;16382;59.942;30.472;2022-07-21T05:19:30;20.90;99.90
29403;DHT22;16382;59.942;30.472;2022-07-21T05:21:59;21.00;99.90
29403;DHT22;16382;59.942;30.472;2022-07-21T05:24:26;21.10;99.90
29403;DHT22;16382;59.942;30.472;2022-07-21T05:26:54;21.20;99.90
29403;DHT22;16382;59.942;30.472;2022-07-21T05:29:21;21.40;99.90
29403;DHT22;16382;59.942;30.472;2022-07-21T05:31:49;21.50;99.90
29403;DHT22;16382;59.942;30.472;2022-07-21T05:34:16;21.70;99.90
29403;DHT22;16382;59.942;30.472;2022-07-21T05:36:43;21.80;99.90
29403;DHT22;16382;59.942;30.472;2022-07-21T05:39:13;22.00;99.90
29403;DHT22;16382;59.942;30.472;2022-07-21T05:41:40;22.30;99.90
29403;DHT22;16382;59.942;30.472;2022-07-21T05:44:08;22.80;99.90
29403;DHT22;16382;59.942;30.472;2022-07-21T05:46:35;23.20;99.90
29403;DHT22;16382;59.942;30.472;2022-07-21T05:49:02;23.80;99.90
29403;DHT22;16382;59.942;30.472;2022-07-21T05:51:30;24.30;99.90
29403;DHT22;16382;59.942;30.472;2022-07-21T05:53:58;24.70;99.90
29403;DHT22;16382;59.942;30.472;2022-07-21T05:56:27;25.00;99.90
29403;DHT22;16382;59.942;30.472;2022-07-21T05:58:54;25.30;99.90
29403;DHT22;16382;59.942;30.472;2022-07-21T06:01:22;25.70;99.90
29403;DHT22;16382;59.942;30.472;2022-07-21T06:03:50;26.00;99.90
29403;DHT22;16382;59.942;30.472;2022-07-21T06:06:19;26.40;99.90
29403;DHT22;16382;59.942;30.472;2022-07-21T06:08:49;26.80;99.90
29403;DHT22;16382;59.942;30.472;2022-07-21T06:11:19;27.20;99.90
29403;DHT22;16382;59.942;30.472;2022-07-21T06:13:48;27.70;99.90
29403;DHT22;16382;59.942;30.472;2022-07-21T06:16:16;28.10;99.90
29403;DHT22;16382;59.942;30.472;2022-07-21T06:18:45;28.20;99.90
29403;DHT22;16382;59.942;30.472;2022-07-21T06:21:12;28.60;99.90
29403;DHT22;16382;59.942;30.472;2022-07-21T06:23:40;28.70;99.90
29403;DHT22;16382;59.942;30.472;2022-07-21T06:26:07;29.00;99.90
29403;DHT22;16382;59.942;30.472;2022-07-21T06:28:35;29.20;99.90
29403;DHT22;16382;59.942;30.472;2022-07-21T06:31:04;29.30;99.90
29403;DHT22;16382;59.942;30.472;2022-07-21T06:33:32;29.50;99.90
29403;DHT22;16382;59.942;30.472;2022-07-21T06:35:59;29.70;98.70
29403;DHT22;16382;59.942;30.472;2022-07-21T06:38:27;29.90;97.80
29403;DHT22;16382;59.942;30.472;2022-07-21T06:40:55;30.10;97.90
29403;DHT22;16382;59.942;30.472;2022-07-21T06:43:22;30.30;96.50
29403;DHT22;16382;59.942;30.472;2022-07-21T06:45:50;30.60;95.20
29403;DHT22;16382;59.942;30.472;2022-07-21T06:48:19;30.80;93.50
29403;DHT22;16382;59.942;30.472;2022-07-21T06:50:48;31.00;92.60
29403;DHT22;16382;59.942;30.472;2022-07-21T06:53:16;31.20;92.00
29403;DHT22;16382;59.942;30.472;2022-07-21T06:55:44;31.20;90.90
29403;DHT22;16382;59.942;30.472;2022-07-21T06:58:14;31.40;90.60
29403;DHT22;16382;59.942;30.472;2022-07-21T07:00:42;31.50;89.40
29403;DHT22;16382;59.942;30.472;2022-07-21T07:03:10;31.70;89.70
29403;DHT22;16382;59.942;30.472;2022-07-21T07:05:40;31.80;86.70
29403;DHT22;16382;59.942;30.472;2022-07-21T07:08:08;31.90;85.80
29403;DHT22;16382;59.942;30.472;2022-07-21T07:10:35;32.10;85.90
29403;DHT22;16382;59.942;30.472;2022-07-21T07:13:03;32.30;85.30
29403;DHT22;16382;59.942;30.472;2022-07-21T07:15:30;32.50;85.80
29403;DHT22;16382;59.942;30.472;2022-07-21T07:17:58;32.60;83.80
29403;DHT22;16382;59.942;30.472;2022-07-21T07:20:25;32.90;82.30
29403;DHT22;16382;59.942;30.472;2022-07-21T07:22:54;33.00;81.20
29403;DHT22;16382;59.942;30.472;2022-07-21T07:25:22;33.20;79.20
29403;DHT22;16382;59.942;30.472;2022-07-21T07:27:50;33.30;78.00
29403;DHT22;16382;59.942;30.472;2022-07-21T07:30:20;33.50;78.90
29403;DHT22;16382;59.942;30.472;2022-07-21T07:32:47;33.70;77.00
29403;DHT22;16382;59.942;30.472;2022-07-21T07:35:16;33.80;75.40
29403;DHT22;16382;59.942;30.472;2022-07-21T07:37:45;34.10;74.70
29403;DHT22;16382;59.942;30.472;2022-07-21T07:40:17;34.30;74.00
29403;DHT22;16382;59.942;30.472;2022-07-21T07:42:45;34.40;73.20
29403;DHT22;16382;59.942;30.472;2022-07-21T07:45:14;34.50;71.80
29403;DHT22;16382;59.942;30.472;2022-07-21T07:47:41;34.70;71.00
29403;DHT22;16382;59.942;30.472;2022-07-21T07:50:13;34.80;69.60
29403;DHT22;16382;59.942;30.472;2022-07-21T07:52:42;35.10;68.50
29403;DHT22;16382;59.942;30.472;2022-07-21T07:55:10;35.30;68.90
29403;DHT22;16382;59.942;30.472;2022-07-21T07:57:41;35.60;68.90
29403;DHT22;16382;59.942;30.472;2022-07-21T08:00:12;35.60;67.30
29403;DHT22;16382;59.942;30.472;2022-07-21T08:02:41;35.80;67.50
29403;DHT22;16382;59.942;30.472;2022-07-21T08:05:09;35.90;67.00
29403;DHT22;16382;59.942;30.472;2022-07-21T08:07:37;36.00;66.00
29403;DHT22;16382;59.942;30.472;2022-07-21T08:10:06;36.20;65.00
29403;DHT22;16382;59.942;30.472;2022-07-21T08:12:34;36.30;64.90
29403;DHT22;16382;59.942;30.472;2022-07-21T08:15:04;36.60;65.20
29403;DHT22;16382;59.942;30.472;2022-07-21T08:17:33;36.70;63.30
29403;DHT22;16382;59.942;30.472;2022-07-21T08:20:00;36.70;63.00
29403;DHT22;16382;59.942;30.472;2022-07-21T08:22:29;36.90;62.50
29403;DHT22;16382;59.942;30.472;2022-07-21T08:24:57;37.10;62.10
29403;DHT22;16382;59.942;30.472;2022-07-21T08:27:24;37.20;61.60
29403;DHT22;16382;59.942;30.472;2022-07-21T08:29:54;37.30;61.10
29403;DHT22;16382;59.942;30.472;2022-07-21T08:32:23;37.50;58.90
29403;DHT22;16382;59.942;30.472;2022-07-21T08:34:51;37.70;58.90
29403;DHT22;16382;59.942;30.472;2022-07-21T08:37:19;37.90;59.50
29403;DHT22;16382;59.942;30.472;2022-07-21T08:39:47;38.10;58.60
29403;DHT22;16382;59.942;30.472;2022-07-21T08:42:15;38.10;58.40
29403;DHT22;16382;59.942;30.472;2022-07-21T08:44:43;38.20;57.80
29403;DHT22;16382;59.942;30.472;2022-07-21T08:47:10;38.20;57.50
29403;DHT22;16382;59.942;30.472;2022-07-21T08:49:39;38.30;56.90
29403;DHT22;16382;59.942;30.472;2022-07-21T08:52:07;38.50;57.20
29403;DHT22;16382;59.942;30.472;2022-07-21T08:54:35;38.50;56.20
29403;DHT22;16382;59.942;30.472;2022-07-21T08:57:03;38.50;56.20
29403;DHT22;16382;59.942;30.472;2022-07-21T08:59:30;38.70;56.20
29403;DHT22;16382;59.942;30.472;2022-07-21T09:01:58;38.80;56.20
29403;DHT22;16382;59.942;30.472;2022-07-21T09:04:27;39.00;56.30
29403;DHT22;16382;59.942;30.472;2022-07-21T09:06:59;39.10;54.80
29403;DHT22;16382;59.942;30.472;2022-07-21T09:09:27;39.10;55.60
29403;DHT22;16382;59.942;30.472;2022-07-21T09:11:56;39.30;54.20
29403;DHT22;16382;59.942;30.472;2022-07-21T09:14:25;39.30;54.90
29403;DHT22;16382;59.942;30.472;2022-07-21T09:16:54;39.50;55.00
29403;DHT22;16382;59.942;30.472;2022-07-21T09:19:25;39.80;55.00
29403;DHT22;16382;59.942;30.472;2022-07-21T09:21:54;39.90;53.40
29403;DHT22;16382;59.942;30.472;2022-07-21T09:24:25;40.00;52.90
29403;DHT22;16382;59.942;30.472;2022-07-21T09:27:04;40.10;53.30
29403;DHT22;16382;59.942;30.472;2022-07-21T09:29:43;40.30;52.40
29403;DHT22;16382;59.942;30.472;2022-07-21T09:32:29;40.50;50.80
29403;DHT22;16382;59.942;30.472;2022-07-21T09:34:59;40.50;51.50
29403;DHT22;16382;59.942;30.472;2022-07-21T09:37:30;40.50;51.10
29403;DHT22;16382;59.942;30.472;2022-07-21T09:40:01;40.60;51.10
29403;DHT22;16382;59.942;30.472;2022-07-21T09:42:36;40.60;51.10
29403;DHT22;16382;59.942;30.472;2022-07-21T09:45:06;40.60;50.40
29403;DHT22;16382;59.942;30.472;2022-07-21T09:47:34;40.60;51.30
29403;DHT22;16382;59.942;30.472;2022-07-21T09:50:04;40.60;51.60
29403;DHT22;16382;59.942;30.472;2022-07-21T09:52:33;40.70;53.00
29403;DHT22;16382;59.942;30.472;2022-07-21T09:55:04;40.90;51.60
29403;DHT22;16382;59.942;30.472;2022-07-21T09:57:33;41.00;50.70
29403;DHT22;16382;59.942;30.472;2022-07-21T10:00:03;41.00;48.90
29403;DHT22;16382;59.942;30.472;2022-07-21T10:02:32;41.10;51.30
29403;DHT22;16382;59.942;30.472;2022-07-21T10:05:03;41.20;50.30
29403;DHT22;16382;59.942;30.472;2022-07-21T10:07:32;41.20;50.70
29403;DHT22;16382;59.942;30.472;2022-07-21T10:10:00;41.30;50.80
29403;DHT22;16382;59.942;30.472;2022-07-21T10:12:31;41.30;50.20
29403;DHT22;16382;59.942;30.472;2022-07-21T10:14:59;41.40;49.20
29403;DHT22;16382;59.942;30.472;2022-07-21T10:17:29;41.60;49.60
29403;DHT22;16382;59.942;30.472;2022-07-21T10:20:03;41.80;48.50
29403;DHT22;16382;59.942;30.472;2022-07-21T10:22:44;41.80;48.20
29403;DHT22;16382;59.942;30.472;2022-07-21T10:25:16;41.90;49.50
29403;DHT22;16382;59.942;30.472;2022-07-21T10:28:16;42.00;49.50
29403;DHT22;16382;59.942;30.472;2022-07-21T10:30:45;42.10;48.80
29403;DHT22;16382;59.942;30.472;2022-07-21T10:33:15;42.20;48.70
29403;DHT22;16382;59.942;30.472;2022-07-21T10:35:44;42.30;46.40
29403;DHT22;16382;59.942;30.472;2022-07-21T10:38:27;42.40;47.30
29403;DHT22;16382;59.942;30.472;2022-07-21T10:40:55;42.60;47.20
29403;DHT22;16382;59.942;30.472;2022-07-21T10:43:42;42.70;46.10
29403;DHT22;16382;59.942;30.472;2022-07-21T10:46:37;42.70;46.10
29403;DHT22;16382;59.942;30.472;2022-07-21T10:49:07;42.80;46.10
29403;DHT22;16382;59.942;30.472;2022-07-21T10:51:37;42.80;44.80
29403;DHT22;16382;59.942;30.472;2022-07-21T10:54:33;42.80;45.40
29403;DHT22;16382;59.942;30.472;2022-07-21T10:57:24;42.90;45.50
29403;DHT22;16382;59.942;30.472;2022-07-21T11:03:01;43.20;45.80
29403;DHT22;16382;59.942;30.472;2022-07-21T11:05:31;43.20;45.30
29403;DHT22;16382;59.942;30.472;2022-07-21T11:08:13;43.30;44.60
29403;DHT22;16382;59.942;30.472;2022-07-21T11:10:42;43.50;43.80
29403;DHT22;16382;59.942;30.472;2022-07-21T11:13:11;43.60;44.70
29403;DHT22;16382;59.942;30.472;2022-07-21T11:15:56;43.50;43.60
29403;DHT22;16382;59.942;30.472;2022-07-21T11:18:26;43.50;44.40
29403;DHT22;16382;59.942;30.472;2022-07-21T11:21:10;43.50;44.90
29403;DHT22;16382;59.942;30.472;2022-07-21T11:23:41;43.60;44.60
29403;DHT22;16382;59.942;30.472;2022-07-21T11:26:09;43.70;44.80
29403;DHT22;16382;59.942;30.472;2022-07-21T11:28:37;43.90;43.30
29403;DHT22;16382;59.942;30.472;2022-07-21T11:31:10;44.00;43.70
29403;DHT22;16382;59.942;30.472;2022-07-21T11:33:41;44.20;43.10
29403;DHT22;16382;59.942;30.472;2022-07-21T11:36:09;44.00;43.40
29403;DHT22;16382;59.942;30.472;2022-07-21T11:38:41;44.00;44.80
29403;DHT22;16382;59.942;30.472;2022-07-21T11:41:23;44.20;43.00
29403;DHT22;16382;59.942;30.472;2022-07-21T11:43:50;44.30;43.40
29403;DHT22;16382;59.942;30.472;2022-07-21T11:46:17;44.40;42.00
29403;DHT22;16382;59.942;30.472;2022-07-21T11:48:46;44.40;42.70
29403;DHT22;16382;59.942;30.472;2022-07-21T11:51:14;44.50;42.80
29403;DHT22;16382;59.942;30.472;2022-07-21T11:53:44;44.60;42.50
29403;DHT22;16382;59.942;30.472;2022-07-21T11:56:16;44.70;41.70
29403;DHT22;16382;59.942;30.472;2022-07-21T11:58:43;44.60;41.50
29403;DHT22;16382;59.942;30.472;2022-07-21T12:01:11;44.60;41.90
29403;DHT22;16382;59.942;30.472;2022-07-21T12:03:50;44.60;42.00
29403;DHT22;16382;59.942;30.472;2022-07-21T12:06:18;44.80;42.60
29403;DHT22;16382;59.942;30.472;2022-07-21T12:08:46;45.00;42.00
29403;DHT22;16382;59.942;30.472;2022-07-21T12:11:14;45.00;41.40
29403;DHT22;16382;59.942;30.472;2022-07-21T12:13:58;45.00;41.50
29403;DHT22;16382;59.942;30.472;2022-07-21T12:16:27;45.10;40.80
29403;DHT22;16382;59.942;30.472;2022-07-21T12:19:15;45.20;41.00
29403;DHT22;16382;59.942;30.472;2022-07-21T12:21:47;45.20;40.70
29403;DHT22;16382;59.942;30.472;2022-07-21T12:24:16;45.20;41.50
29403;DHT22;16382;59.942;30.472;2022-07-21T12:26:48;45.10;40.30
29403;DHT22;16382;59.942;30.472;2022-07-21T12:29:25;45.20;40.10
29403;DHT22;16382;59.942;30.472;2022-07-21T12:31:52;45.30;40.90
29403;DHT22;16382;59.942;30.472;2022-07-21T12:34:22;45.30;41.80
29403;DHT22;16382;59.942;30.472;2022-07-21T12:36:51;45.30;40.80
29403;DHT22;16382;59.942;30.472;2022-07-21T12:39:20;45.20;40.60
29403;DHT22;16382;59.942;30.472;2022-07-21T12:42:07;45.20;41.20
29403;DHT22;16382;59.942;30.472;2022-07-21T12:44:35;45.20;40.70
29403;DHT22;16382;59.942;30.472;2022-07-21T12:47:21;45.20;40.20
29403;DHT22;16382;59.942;30.472;2022-07-21T12:50:00;45.20;40.50
29403;DHT22;16382;59.942;30.472;2022-07-21T12:52:29;45.20;40.90
29403;DHT22;16382;59.942;30.472;2022-07-21T12:54:58;45.20;40.70
29403;DHT22;16382;59.942;30.472;2022-07-21T12:57:26;45.30;40.90
29403;DHT22;16382;59.942;30.472;2022-07-21T12:59:55;45.20;40.40
29403;DHT22;16382;59.942;30.472;2022-07-21T13:02:23;45.00;41.10
29403;DHT22;16382;59.942;30.472;2022-07-21T13:04:52;45.00;41.20
29403;DHT22;16382;59.942;30.472;2022-07-21T13:07:21;45.10;40.80
29403;DHT22;16382;59.942;30.472;2022-07-21T13:09:48;45.20;41.20
29403;DHT22;16382;59.942;30.472;2022-07-21T13:12:16;45.30;41.00
29403;DHT22;16382;59.942;30.472;2022-07-21T13:14:45;45.40;40.80
29403;DHT22;16382;59.942;30.472;2022-07-21T13:17:12;45.40;40.70
29403;DHT22;16382;59.942;30.472;2022-07-21T13:19:40;45.60;40.00
29403;DHT22;16382;59.942;30.472;2022-07-21T13:22:07;45.60;39.60
29403;DHT22;16382;59.942;30.472;2022-07-21T13:24:36;45.60;39.10
29403;DHT22;16382;59.942;30.472;2022-07-21T13:27:04;45.60;39.70
29403;DHT22;16382;59.942;30.472;2022-07-21T13:29:32;45.40;40.20
29403;DHT22;16382;59.942;30.472;2022-07-21T13:31:59;45.40;39.70
29403;DHT22;16382;59.942;30.472;2022-07-21T13:34:27;45.30;40.30
29403;DHT22;16382;59.942;30.472;2022-07-21T13:36:55;45.20;39.20
29403;DHT22;16382;59.942;30.472;2022-07-21T13:39:22;45.10;39.40
29403;DHT22;16382;59.942;30.472;2022-07-21T13:41:54;44.80;40.00
29403;DHT22;16382;59.942;30.472;2022-07-21T13:44:21;44.90;39.30
29403;DHT22;16382;59.942;30.472;2022-07-21T13:46:49;45.10;39.40
29403;DHT22;16382;59.942;30.472;2022-07-21T13:49:17;45.00;38.30
29403;DHT22;16382;59.942;30.472;2022-07-21T13:51:44;45.00;38.00
29403;DHT22;16382;59.942;30.472;2022-07-21T13:54:12;44.90;37.60
29403;DHT22;16382;59.942;30.472;2022-07-21T13:56:39;44.50;38.00
29403;DHT22;16382;59.942;30.472;2022-07-21T13:59:08;44.40;38.60
29403;DHT22;16382;59.942;30.472;2022-07-21T14:01:36;44.30;39.30
29403;DHT22;16382;59.942;30.472;2022-07-21T14:04:03;44.20;39.00
29403;DHT22;16382;59.942;30.472;2022-07-21T14:06:31;44.00;40.50
29403;DHT22;16382;59.942;30.472;2022-07-21T14:08:58;43.70;39.70
29403;DHT22;16382;59.942;30.472;2022-07-21T14:11:26;43.50;40.10
29403;DHT22;16382;59.942;30.472;2022-07-21T14:13:54;43.30;39.60
29403;DHT22;16382;59.942;30.472;2022-07-21T14:16:23;43.00;41.00
29403;DHT22;16382;59.942;30.472;2022-07-21T14:18:51;42.60;41.20
29403;DHT22;16382;59.942;30.472;2022-07-21T14:21:19;42.20;40.90
29403;DHT22;16382;59.942;30.472;2022-07-21T14:23:47;41.70;41.50
29403;DHT22;16382;59.942;30.472;2022-07-21T14:26:34;41.10;42.00
29403;DHT22;16382;59.942;30.472;2022-07-21T14:29:04;40.00;42.90
29403;DHT22;16382;59.942;30.472;2022-07-21T14:31:35;38.90;45.20
29403;DHT22;16382;59.942;30.472;2022-07-21T14:34:02;37.80;44.60
29403;DHT22;16382;59.942;30.472;2022-07-21T14:36:30;36.90;45.80
29403;DHT22;16382;59.942;30.472;2022-07-21T14:38:57;36.00;46.80
29403;DHT22;16382;59.942;30.472;2022-07-21T14:41:25;35.20;48.60
29403;DHT22;16382;59.942;30.472;2022-07-21T14:43:53;34.50;50.10
29403;DHT22;16382;59.942;30.472;2022-07-21T14:46:20;34.00;50.90
29403;DHT22;16382;59.942;30.472;2022-07-21T14:48:49;33.60;51.20
29403;DHT22;16382;59.942;30.472;2022-07-21T14:51:17;33.20;50.80
29403;DHT22;16382;59.942;30.472;2022-07-21T14:53:44;32.90;52.10
29403;DHT22;16382;59.942;30.472;2022-07-21T14:56:11;32.70;53.50
29403;DHT22;16382;59.942;30.472;2022-07-21T14:58:39;32.50;54.30
29403;DHT22;16382;59.942;30.472;2022-07-21T15:01:07;32.20;54.20
29403;DHT22;16382;59.942;30.472;2022-07-21T15:03:34;32.10;55.60
29403;DHT22;16382;59.942;30.472;2022-07-21T15:06:03;31.90;54.60
29403;DHT22;16382;59.942;30.472;2022-07-21T15:08:31;31.80;55.80
29403;DHT22;16382;59.942;30.472;2022-07-21T15:10:59;31.70;55.70
29403;DHT22;16382;59.942;30.472;2022-07-21T15:13:26;31.60;56.10
29403;DHT22;16382;59.942;30.472;2022-07-21T15:15:55;31.50;56.60
29403;DHT22;16382;59.942;30.472;2022-07-21T15:18:22;31.30;56.70
29403;DHT22;16382;59.942;30.472;2022-07-21T15:20:50;31.20;56.50
29403;DHT22;16382;59.942;30.472;2022-07-21T15:23:19;31.00;57.20
29403;DHT22;16382;59.942;30.472;2022-07-21T15:25:47;31.00;57.10
29403;DHT22;16382;59.942;30.472;2022-07-21T15:28:14;30.90;57.50
29403;DHT22;16382;59.942;30.472;2022-07-21T15:30:42;30.90;57.00